createdAt,value
2022-11-23T00:03:07.447Z,37.08
2022-11-23T00:08:12.378Z,38.75
2022-11-23T00:13:15.145Z,40.55
2022-11-23T00:18:20.820Z,37.03
2022-11-23T00:23:25.020Z,39.00
2022-11-23T00:28:27.821Z,36.53
2022-11-23T00:33:32.073Z,38.05
2022-11-23T00:38:36.597Z,43.63
2022-11-23T00:43:39.593Z,39.08
2022-11-23T00:48:45.213Z,43.20
2022-11-23T00:53:52.235Z,42.42
2022-11-23T00:58:59.790Z,39.72
2022-11-23T01:04:08.372Z,37.80
2022-11-23T01:14:17.284Z,35.03
2022-11-23T01:19:22.759Z,36.22
2022-11-23T01:24:25.541Z,34.78
2022-11-23T01:29:28.301Z,38.72
2022-11-23T01:34:32.533Z,35.80
2022-11-23T01:39:35.313Z,38.35
2022-11-23T01:44:39.603Z,35.22
2022-11-23T01:49:52.611Z,32.47
2022-11-23T01:54:58.059Z,36.00
2022-11-23T02:00:01.572Z,36.67
2022-11-23T02:05:19.678Z,36.35
2022-11-23T02:10:23.953Z,40.08
2022-11-23T02:15:27.094Z,34.45
2022-11-23T02:20:31.522Z,42.30
2022-11-23T02:25:40.822Z,35.60
2022-11-23T02:30:48.384Z,33.55
2022-11-23T02:35:53.032Z,39.20
2022-11-23T02:40:55.774Z,34.65
2022-11-23T02:46:05.244Z,37.83
2022-11-23T02:51:08.065Z,35.33
2022-11-23T02:56:10.819Z,30.83
2022-11-23T03:01:15.091Z,36.28
2022-11-23T03:06:17.952Z,34.30
2022-11-23T03:11:20.801Z,32.50
2022-11-23T03:16:24.926Z,32.60
2022-11-23T03:21:27.801Z,31.65
2022-11-23T03:26:30.635Z,32.70
2022-11-23T03:31:44.947Z,31.02
2022-11-23T03:36:50.935Z,28.55
2022-11-23T03:41:53.910Z,28.80
2022-11-23T03:47:01.214Z,30.77
2022-11-23T03:52:04.696Z,32.83
2022-11-23T03:57:07.649Z,31.17
2022-11-23T04:02:13.007Z,30.27
2022-11-23T04:07:23.701Z,35.72
2022-11-23T04:12:30.317Z,28.48
2022-11-23T04:17:34.416Z,27.73
2022-11-23T04:22:37.372Z,31.88
2022-11-23T04:27:40.215Z,34.67
2022-11-23T04:32:47.081Z,30.40
2022-11-23T04:37:53.675Z,34.80
2022-11-23T04:43:01.770Z,30.42
2022-11-23T04:48:08.262Z,30.38
2022-11-23T04:53:13.782Z,29.30
2022-11-23T04:58:21.496Z,32.88
2022-11-23T05:03:31.237Z,28.10
2022-11-23T05:08:36.975Z,27.08
2022-11-23T05:14:00.738Z,29.77
2022-11-23T05:19:06.848Z,27.38
2022-11-23T05:24:09.917Z,32.92
2022-11-23T05:29:18.801Z,28.77
2022-11-23T05:34:23.327Z,33.00
2022-11-23T05:39:26.509Z,28.45
2022-11-23T05:44:30.009Z,27.75
2022-11-23T05:49:35.192Z,27.77
2022-11-23T05:54:40.302Z,30.60
2022-11-23T05:59:48.985Z,29.92
2022-11-23T06:04:57.120Z,27.73
2022-11-23T06:10:12.366Z,31.08
2022-11-23T06:15:21.285Z,26.02
2022-11-23T06:20:26.100Z,28.80
2022-11-23T06:25:34.798Z,28.75
2022-11-23T06:30:54.879Z,26.00
2022-11-23T06:36:02.593Z,27.38
2022-11-23T06:41:11.672Z,27.25
2022-11-23T06:46:15.830Z,27.30
2022-11-23T06:51:20.082Z,26.15
2022-11-23T06:56:25.080Z,23.42
2022-11-23T07:01:28.103Z,25.83
2022-11-23T07:06:44.365Z,23.70
2022-11-23T07:11:57.881Z,23.67
2022-11-23T07:17:01.910Z,26.88
2022-11-23T07:22:07.967Z,27.35
2022-11-23T07:27:10.833Z,23.08
2022-11-23T07:32:19.356Z,28.25
2022-11-23T07:37:23.876Z,24.45
2022-11-23T07:42:38.132Z,28.13
2022-11-23T07:47:46.795Z,25.20
2022-11-23T07:52:53.471Z,24.73
2022-11-23T07:57:56.547Z,22.45
2022-11-23T08:03:30.433Z,21.58
2022-11-23T08:08:27.434Z,20.20
2022-11-23T08:13:30.237Z,22.42
2022-11-23T08:18:33.039Z,24.70
2022-11-23T08:23:37.422Z,18.85
2022-11-23T08:28:53.973Z,21.13
2022-11-23T08:34:01.808Z,19.02
2022-11-23T08:39:08.710Z,16.70
2022-11-23T08:44:12.364Z,19.67
2022-11-23T08:49:18.111Z,23.23
2022-11-23T08:54:25.466Z,21.10
2022-11-23T08:59:28.235Z,16.02
2022-11-23T09:04:31.059Z,17.88
2022-11-23T09:16:50.224Z,15.27
2022-11-23T09:21:54.246Z,12.70
2022-11-23T09:26:59.565Z,15.52
2022-11-23T09:32:25.474Z,14.30
2022-11-23T09:37:37.490Z,13.25
2022-11-23T09:43:17.393Z,19.02
2022-11-23T09:48:36.695Z,15.27
2022-11-23T09:53:46.832Z,15.93
2022-11-23T09:58:57.623Z,14.52
2022-11-23T10:04:02.130Z,14.50
2022-11-23T10:09:24.331Z,16.67
2022-11-23T10:14:40.596Z,13.45
2022-11-23T10:20:00.618Z,12.70
2022-11-23T10:25:15.354Z,12.88
2022-11-23T10:30:21.562Z,10.48
2022-11-23T10:35:30.259Z,12.13
2022-11-23T10:40:33.204Z,12.80
2022-11-23T10:45:35.992Z,13.18
2022-11-23T10:50:41.889Z,9.55
2022-11-23T10:55:50.567Z,9.85
2022-11-23T11:01:01.678Z,14.57
2022-11-23T11:06:09.606Z,12.85
2022-11-23T11:11:25.716Z,11.88
2022-11-23T11:16:31.843Z,10.80
2022-11-23T11:21:42.081Z,11.02
2022-11-23T11:26:50.061Z,11.63
2022-11-23T11:31:59.312Z,14.60
2022-11-23T11:37:12.237Z,12.20
2022-11-23T11:42:21.147Z,10.23
2022-11-23T11:47:35.083Z,11.35
2022-11-23T11:52:43.666Z,10.20
2022-11-23T11:57:50.050Z,9.73
2022-11-23T12:03:02.051Z,8.43
2022-11-23T12:08:12.549Z,10.65
2022-11-23T12:13:18.697Z,8.82
2022-11-23T12:18:35.959Z,9.90
2022-11-23T12:23:53.570Z,6.75
2022-11-23T12:29:15.881Z,10.95
2022-11-23T12:34:47.548Z,9.35
2022-11-23T12:40:08.422Z,6.75
2022-11-23T12:45:32.815Z,9.23
2022-11-23T12:50:47.437Z,16.13
2022-11-23T12:56:04.658Z,10.20
2022-11-23T13:01:14.362Z,7.15
2022-11-23T13:06:50.004Z,10.48
2022-11-23T13:12:21.194Z,10.88
2022-11-23T13:50:56.328Z,8.48
2022-11-23T14:42:01.415Z,8.20
2022-11-23T14:52:36.371Z,11.50
2022-11-23T14:57:44.506Z,8.13
2022-11-23T15:03:42.699Z,8.15
2022-11-23T15:09:45.022Z,7.43
2022-11-23T15:15:02.150Z,8.95
2022-11-23T15:20:05.774Z,8.90
2022-11-23T15:25:12.764Z,12.63
2022-11-23T15:30:22.262Z,9.70
2022-11-23T15:35:30.490Z,11.55
2022-11-23T15:40:39.029Z,10.18
2022-11-23T15:51:09.385Z,14.15
2022-11-23T15:56:21.775Z,10.15
2022-11-23T16:01:27.108Z,9.98
2022-11-23T16:06:46.152Z,16.50
2022-11-23T16:12:31.832Z,11.80
2022-11-23T16:17:36.091Z,12.35
2022-11-23T16:22:45.548Z,12.80
2022-11-23T16:27:48.468Z,13.20
2022-11-23T16:32:52.827Z,9.98
2022-11-23T16:37:55.615Z,11.75
2022-11-23T16:42:58.489Z,15.80
2022-11-23T16:48:03.833Z,13.23
2022-11-23T16:53:14.918Z,16.30
2022-11-23T16:58:17.977Z,16.45
2022-11-23T17:03:24.006Z,13.00
2022-11-23T17:08:26.914Z,10.07
2022-11-23T17:13:30.766Z,16.13
2022-11-23T17:18:34.825Z,11.88
2022-11-23T17:23:39.913Z,12.80
2022-11-23T17:28:42.659Z,11.60
2022-11-23T17:33:46.719Z,12.23
2022-11-23T17:38:49.605Z,13.50
2022-11-23T17:43:52.432Z,11.77
2022-11-23T17:48:58.887Z,13.80
2022-11-23T17:54:01.703Z,13.57
2022-11-23T17:59:04.948Z,14.40
2022-11-23T18:04:09.048Z,14.57
2022-11-23T18:09:12.429Z,14.13
2022-11-23T18:14:15.307Z,15.55
2022-11-23T18:19:19.364Z,12.48
2022-11-23T18:24:22.133Z,14.77
2022-11-23T18:29:26.708Z,13.60
2022-11-23T18:34:32.804Z,17.20
2022-11-23T18:39:35.777Z,16.20
2022-11-23T18:44:38.641Z,12.95
2022-11-23T18:49:42.896Z,12.90
2022-11-23T18:54:45.724Z,17.23
2022-11-23T18:59:59.194Z,16.67
2022-11-23T19:05:17.034Z,14.05
2022-11-23T19:10:20.801Z,15.65
2022-11-23T19:15:23.666Z,17.80
2022-11-23T19:20:31.398Z,16.90
2022-11-23T19:25:34.363Z,17.57
2022-11-23T19:30:38.049Z,15.73
2022-11-23T19:35:42.524Z,22.40
2022-11-23T19:40:45.385Z,14.35
2022-11-23T19:45:59.845Z,15.93
2022-11-23T19:51:07.150Z,17.08
2022-11-23T19:56:13.627Z,18.63
2022-11-23T20:01:36.413Z,19.77
2022-11-23T20:06:51.766Z,16.92
2022-11-23T20:11:57.233Z,19.23
2022-11-23T20:17:16.131Z,21.25
2022-11-23T20:22:29.421Z,20.90
2022-11-23T20:27:40.089Z,15.63
2022-11-23T20:32:49.239Z,16.90
2022-11-23T20:37:56.394Z,21.10
2022-11-23T20:43:00.522Z,19.65
2022-11-23T20:48:03.599Z,23.40
2022-11-23T20:53:10.463Z,18.17
2022-11-23T20:58:19.537Z,19.63
2022-11-23T21:04:02.881Z,17.77
2022-11-23T21:09:14.243Z,15.55
2022-11-23T21:14:19.526Z,15.88
2022-11-23T21:19:27.344Z,11.77
2022-11-23T21:24:31.968Z,16.10
2022-11-23T21:29:35.565Z,11.00
2022-11-23T21:34:38.548Z,10.18
2022-11-23T21:39:46.615Z,13.55
2022-11-23T21:44:52.543Z,11.98
2022-11-23T21:49:55.468Z,13.18
2022-11-23T21:54:59.692Z,12.57
2022-11-23T22:00:03.279Z,13.18
2022-11-23T22:05:15.941Z,12.15
2022-11-23T22:10:20.350Z,14.57
2022-11-23T22:15:23.164Z,16.20
2022-11-23T22:20:25.925Z,16.98
2022-11-23T22:25:30.055Z,13.57
2022-11-23T22:30:32.990Z,11.10
2022-11-23T22:35:35.810Z,18.52
2022-11-23T22:40:40.249Z,11.95
2022-11-23T22:45:43.074Z,13.48
2022-11-23T22:50:56.373Z,12.20
2022-11-23T22:56:02.961Z,11.10
2022-11-23T23:01:07.608Z,14.95
2022-11-23T23:06:16.415Z,12.18
2022-11-23T23:11:21.549Z,9.35
2022-11-23T23:16:24.833Z,11.20
2022-11-23T23:21:29.612Z,12.80
2022-11-23T23:26:33.718Z,10.35
2022-11-23T23:31:37.542Z,12.27
2022-11-23T23:36:40.333Z,11.10
2022-11-23T23:41:44.490Z,10.98
2022-11-23T23:46:47.264Z,8.30
2022-11-23T23:51:51.720Z,11.98
2022-11-23T23:56:55.972Z,17.35
